Thunder radar more information blitzortung!


Rain radar more information rain snow radar


Equipment we use:

Davis VP2

Weather Display

BareMetal


Nearby METAR Reports

   
CYAZ - Tofino, BC
Updated: 04-25-2018 08:00
Clear  
Clear  
   Wind: Calm
Wind: Calm
Temperature: 9°C
Dew Point: 8°C
Humidity: 94%
Barometer: 1019.6 hPa
Clouds: Clear
Visibility: 24 km
Cloud details: Clear
CYAZ 251500Z 00000KT 15SM SKC 09/08 A3011 RMK SLP197
CYHE - Hope,BC
Updated: 04-25-2018 08:00
Clear  
Clear  
   Wind: East 20.4 km/h
Wind: East 20.4 km/h
Temperature: 10°C
Wind Chill: 7°C
Dew Point: 3°C
Humidity: 62%
Barometer: 1023.7 hPa
Clouds: Clear
Visibility: 15 km
Cloud details: Clear
CYHE 251500Z AUTO 10011KT 9SM CLR 10/03 A3023 RMK SLP239
CYYT - St. John's, NL
Updated: 04-25-2018 08:00
Mostly Cloudy  
Mostly Cloudy  
   Wind: West 29.6 km/h<br />Gust to 29.6 km/h
Wind: West 29.6 km/h
Gust to 29.6 km/h
Temperature: 16°C
Dew Point: -1°C
Humidity: 31%
Barometer: 1020 hPa
Clouds: Mostly Cloudy
Visibility: 24 km
Cloud details: Mostly Cloudy 5181.6 m
CYYT 251500Z 27016G24KT 15SM BKN170 16/M01 A3012 RMK AC6 SLP206 DENSITY ALT 500FT

Script developed by  Saratoga-weather.org Adapted for the template by  Weerstation Leuven